createdAt,value
2023-04-28T00:02:01.371Z,5.68
2023-04-28T00:04:28.891Z,1.25
2023-04-28T00:06:56.739Z,4.75
2023-04-28T00:09:24.169Z,2.20
2023-04-28T00:11:51.727Z,1.75
2023-04-28T00:14:19.169Z,5.25
2023-04-28T00:16:46.957Z,8.98
2023-04-28T00:19:14.452Z,2.10
2023-04-28T00:21:41.990Z,3.53
2023-04-28T00:24:09.328Z,5.38
2023-04-28T00:26:36.922Z,3.15
2023-04-28T00:29:04.203Z,8.30
2023-04-28T00:31:31.930Z,3.70
2023-04-28T00:33:59.432Z,8.48
2023-04-28T00:36:30.888Z,6.85
2023-04-28T00:38:58.423Z,5.55
2023-04-28T00:41:26.084Z,7.10
2023-04-28T00:43:53.404Z,7.75
2023-04-28T00:46:22.836Z,7.25
2023-04-28T00:48:50.583Z,2.13
2023-04-28T00:51:18.163Z,0.82
2023-04-28T00:53:45.840Z,5.70
2023-04-28T00:56:13.515Z,5.63
2023-04-28T00:58:41.475Z,2.95
2023-04-28T01:01:10.170Z,2.30
2023-04-28T01:03:38.895Z,6.10
2023-04-28T01:06:07.991Z,2.55
2023-04-28T01:08:36.772Z,7.72
2023-04-28T01:11:04.438Z,5.15
2023-04-28T01:13:31.722Z,9.25
2023-04-28T01:15:59.693Z,4.60
2023-04-28T01:18:27.180Z,4.10
2023-04-28T01:20:54.802Z,2.42
2023-04-28T01:23:22.143Z,6.50
2023-04-28T01:25:49.672Z,3.17
2023-04-28T01:28:16.977Z,3.03
2023-04-28T01:30:44.824Z,2.95
2023-04-28T01:33:12.075Z,3.15
2023-04-28T01:35:39.929Z,4.10
2023-04-28T01:38:07.240Z,4.13
2023-04-28T01:40:34.790Z,8.77
2023-04-28T01:43:02.073Z,3.78
2023-04-28T01:45:29.679Z,7.63
2023-04-28T01:47:57.038Z,5.18
2023-04-28T01:50:24.628Z,1.83
2023-04-28T01:52:51.872Z,3.30
2023-04-28T01:55:19.404Z,4.38
2023-04-28T01:57:46.690Z,6.32
2023-04-28T02:00:14.363Z,5.82
2023-04-28T02:02:41.908Z,4.68
2023-04-28T02:05:09.586Z,3.22
2023-04-28T02:07:36.888Z,2.78
2023-04-28T02:10:04.550Z,5.32
2023-04-28T02:12:31.835Z,2.67
2023-04-28T02:14:59.608Z,3.45
2023-04-28T02:17:26.933Z,9.65
2023-04-28T02:19:57.840Z,8.07
2023-04-28T02:22:25.429Z,6.57
2023-04-28T02:24:53.014Z,4.55
2023-04-28T02:27:20.735Z,6.18
2023-04-28T02:29:48.265Z,4.53
2023-04-28T02:32:15.589Z,1.98
2023-04-28T02:34:43.157Z,2.08
2023-04-28T02:37:10.749Z,3.80
2023-04-28T02:39:38.415Z,2.95
2023-04-28T02:42:05.743Z,2.30
2023-04-28T02:44:33.318Z,7.07
2023-04-28T02:47:01.900Z,2.40
2023-04-28T02:49:29.942Z,4.35
2023-04-28T02:51:57.235Z,4.32
2023-04-28T02:54:27.983Z,9.30
2023-04-28T02:56:55.672Z,4.35
2023-04-28T02:59:23.606Z,1.35
2023-04-28T03:01:51.938Z,3.05
2023-04-28T03:04:19.922Z,2.33
2023-04-28T03:06:47.663Z,5.68
2023-04-28T03:09:15.582Z,3.80
2023-04-28T03:11:42.842Z,3.03
2023-04-28T03:14:11.110Z,2.47
2023-04-28T03:16:38.973Z,4.97
2023-04-28T03:19:06.622Z,9.15
2023-04-28T03:21:34.011Z,2.15
2023-04-28T03:24:02.977Z,4.20
2023-04-28T03:26:32.097Z,5.15
2023-04-28T03:29:00.221Z,8.90
2023-04-28T03:31:27.541Z,3.55
2023-04-28T03:33:55.314Z,6.80
2023-04-28T03:36:22.576Z,4.63
2023-04-28T03:38:50.133Z,2.85
2023-04-28T03:41:17.470Z,7.13
2023-04-28T03:43:45.131Z,4.97
2023-04-28T03:46:12.447Z,10.82
2023-04-28T03:48:40.069Z,2.90
2023-04-28T03:51:07.488Z,5.55
2023-04-28T03:53:35.047Z,5.20
2023-04-28T03:56:02.300Z,9.00
2023-04-28T03:58:29.956Z,9.00
2023-04-28T04:00:57.215Z,8.02
2023-04-28T04:03:26.534Z,6.40
2023-04-28T04:05:55.101Z,5.50
2023-04-28T04:08:22.729Z,1.52
2023-04-28T04:10:50.036Z,5.75
2023-04-28T04:13:17.597Z,5.55
2023-04-28T04:15:44.963Z,9.40
2023-04-28T04:18:12.629Z,9.10
2023-04-28T04:20:39.887Z,5.53
2023-04-28T04:23:07.845Z,3.13
2023-04-28T04:25:36.790Z,8.95
2023-04-28T04:28:04.560Z,8.13
2023-04-28T04:30:31.866Z,7.38
2023-04-28T04:32:59.485Z,5.70
2023-04-28T04:35:26.769Z,2.50
2023-04-28T04:37:54.503Z,4.70
2023-04-28T04:40:21.957Z,6.07
2023-04-28T04:42:49.570Z,4.25
2023-04-28T04:45:17.656Z,7.38
2023-04-28T04:47:45.264Z,2.08
2023-04-28T04:50:12.692Z,6.10
2023-04-28T04:52:40.311Z,5.80
2023-04-28T04:55:07.938Z,4.60
2023-04-28T04:57:35.565Z,4.45
2023-04-28T05:00:03.270Z,4.60
2023-04-28T05:02:30.970Z,3.70
2023-04-28T05:05:08.004Z,6.10
2023-04-28T05:07:40.351Z,5.25
2023-04-28T05:10:07.951Z,5.40
2023-04-28T05:12:35.577Z,1.77
2023-04-28T05:15:02.860Z,4.95
2023-04-28T05:17:30.749Z,11.57
2023-04-28T05:19:58.037Z,38.65
2023-04-28T05:22:26.433Z,7.55
2023-04-28T05:24:53.815Z,11.45
2023-04-28T05:27:21.380Z,7.50
2023-04-28T05:29:48.673Z,3.33
2023-04-28T05:32:16.370Z,5.38
2023-04-28T05:34:43.829Z,5.40
2023-04-28T05:37:11.543Z,2.70
2023-04-28T05:39:38.839Z,2.85
2023-04-28T05:42:06.682Z,14.80
2023-04-28T05:44:33.991Z,5.18
2023-04-28T05:47:01.752Z,5.93
2023-04-28T05:49:29.215Z,4.85
2023-04-28T05:51:56.787Z,1.85
2023-04-28T05:54:24.052Z,7.68
2023-04-28T05:56:51.710Z,2.75
2023-04-28T05:59:19.453Z,3.70
2023-04-28T06:01:47.152Z,2.85
2023-04-28T06:04:14.680Z,5.50
2023-04-28T06:06:42.496Z,5.88
2023-04-28T06:09:09.819Z,2.92
2023-04-28T06:11:37.470Z,1.33
2023-04-28T06:14:04.750Z,5.32
2023-04-28T06:16:33.779Z,4.97
2023-04-28T06:19:01.146Z,2.20
2023-04-28T06:21:29.218Z,3.05
2023-04-28T06:23:56.523Z,6.03
2023-04-28T06:26:24.810Z,3.22
2023-04-28T06:28:52.257Z,3.00
2023-04-28T06:31:19.843Z,5.90
2023-04-28T06:33:47.139Z,3.45
2023-04-28T06:36:16.773Z,5.53
2023-04-28T06:38:44.647Z,5.97
2023-04-28T06:41:12.525Z,5.93
2023-04-28T06:43:39.837Z,4.13
2023-04-28T06:46:08.037Z,5.22
2023-04-28T06:48:35.662Z,3.50
2023-04-28T06:51:03.536Z,1.75
2023-04-28T06:53:31.393Z,2.90
2023-04-28T06:55:58.754Z,2.25
2023-04-28T06:58:26.329Z,10.35
2023-04-28T07:00:53.791Z,8.50
2023-04-28T07:03:21.458Z,3.58
2023-04-28T07:05:48.911Z,4.68
2023-04-28T07:08:17.592Z,4.63
2023-04-28T07:10:44.931Z,2.42
2023-04-28T07:13:12.564Z,8.52
2023-04-28T07:15:40.614Z,2.60
2023-04-28T07:18:08.272Z,1.70
2023-04-28T07:20:35.781Z,5.18
2023-04-28T07:23:03.559Z,4.35
2023-04-28T07:25:30.892Z,3.28
2023-04-28T07:27:58.597Z,7.35
2023-04-28T07:30:27.990Z,4.85
2023-04-28T07:32:56.353Z,1.63
2023-04-28T07:35:23.813Z,1.48
2023-04-28T07:37:51.745Z,5.78
2023-04-28T07:40:19.830Z,1.25
2023-04-28T07:42:47.959Z,4.63
2023-04-28T07:45:16.204Z,4.13
2023-04-28T07:47:43.837Z,3.13
2023-04-28T07:50:11.811Z,5.25
2023-04-28T07:52:39.708Z,0.93
2023-04-28T07:55:07.110Z,3.33
2023-04-28T07:57:34.691Z,2.10
2023-04-28T08:00:02.109Z,4.05
2023-04-28T08:02:29.800Z,4.35
2023-04-28T08:04:57.464Z,4.07
2023-04-28T08:07:25.359Z,4.13
2023-04-28T08:09:53.833Z,4.30
2023-04-28T08:12:21.953Z,3.95
2023-04-28T08:14:49.263Z,6.50
2023-04-28T08:17:18.249Z,3.45
2023-04-28T08:19:46.336Z,1.75
2023-04-28T08:22:14.042Z,3.97
2023-04-28T08:24:41.579Z,2.55
2023-04-28T08:27:09.289Z,3.60
2023-04-28T08:29:36.570Z,2.90
2023-04-28T08:32:06.431Z,1.95
2023-04-28T08:34:34.298Z,6.93
2023-04-28T08:37:02.141Z,3.67
2023-04-28T08:39:30.734Z,8.77
2023-04-28T08:41:58.379Z,4.25
2023-04-28T08:44:26.295Z,2.95
2023-04-28T08:46:58.047Z,3.25
2023-04-28T08:49:30.190Z,5.32
2023-04-28T08:52:00.179Z,1.45
2023-04-28T08:54:32.104Z,4.40
2023-04-28T08:57:00.394Z,2.22
2023-04-28T08:59:27.997Z,3.03
2023-04-28T09:01:56.958Z,3.83
2023-04-28T09:04:24.676Z,1.85
2023-04-28T09:06:52.828Z,6.60
2023-04-28T09:09:25.391Z,6.78
2023-04-28T09:11:53.477Z,5.65
2023-04-28T09:14:20.751Z,3.47
2023-04-28T09:16:48.870Z,4.28
2023-04-28T09:19:17.236Z,3.95
2023-04-28T09:21:48.566Z,2.47
2023-04-28T09:24:31.853Z,6.78
2023-04-28T09:29:26.869Z,2.50
2023-04-28T09:31:54.636Z,5.07
2023-04-28T09:34:22.360Z,5.45
2023-04-28T09:36:49.982Z,3.15
2023-04-28T09:39:29.204Z,3.95
2023-04-28T09:41:57.278Z,5.43
2023-04-28T09:44:24.648Z,4.28
2023-04-28T09:46:52.221Z,9.98
2023-04-28T09:49:19.470Z,3.83
2023-04-28T09:51:47.142Z,3.55
2023-04-28T09:54:14.600Z,4.72
2023-04-28T09:56:43.773Z,4.65
2023-04-28T09:59:11.482Z,2.55
2023-04-28T10:01:41.543Z,3.90
2023-04-28T10:04:09.782Z,5.03
2023-04-28T10:06:37.506Z,3.53
2023-04-28T10:09:05.795Z,7.28
2023-04-28T10:11:34.638Z,4.70
2023-04-28T10:14:02.396Z,4.93
2023-04-28T10:16:35.098Z,2.53
2023-04-28T10:19:03.120Z,6.13
2023-04-28T10:21:34.285Z,3.72
2023-04-28T10:24:05.786Z,3.20
2023-04-28T10:26:53.921Z,8.13
2023-04-28T10:29:25.488Z,4.25
2023-04-28T10:32:12.328Z,4.15
2023-04-28T10:34:39.987Z,2.30
2023-04-28T10:37:07.596Z,4.30
2023-04-28T10:39:35.117Z,3.65
2023-04-28T10:42:02.751Z,3.80
2023-04-28T10:44:35.663Z,2.53
2023-04-28T10:47:07.995Z,6.22
2023-04-28T10:49:54.154Z,3.10
2023-04-28T10:52:37.790Z,3.80
2023-04-28T10:55:23.723Z,7.32
2023-04-28T10:58:14.539Z,4.35
2023-04-28T11:00:42.220Z,10.73
2023-04-28T11:03:10.286Z,5.63
2023-04-28T11:05:37.792Z,5.53
2023-04-28T11:08:33.225Z,5.25
2023-04-28T11:11:16.384Z,3.35
2023-04-28T11:13:46.865Z,5.28
2023-04-28T11:16:18.555Z,2.70
2023-04-28T11:18:50.903Z,2.92
2023-04-28T11:23:47.504Z,13.98
2023-04-28T11:26:15.431Z,5.22
2023-04-28T11:28:50.582Z,4.85
2023-04-28T11:31:23.903Z,3.58
2023-04-28T11:33:54.496Z,4.90
2023-04-28T11:36:24.804Z,4.78
2023-04-28T11:38:52.676Z,3.67
2023-04-28T11:41:20.134Z,4.20
2023-04-28T11:43:48.186Z,4.22
2023-04-28T11:46:19.155Z,3.75
2023-04-28T11:48:47.308Z,3.13
2023-04-28T11:51:35.044Z,6.63
2023-04-28T11:54:03.606Z,5.20
2023-04-28T11:56:32.098Z,8.45
2023-04-28T11:59:04.699Z,7.57
2023-04-28T12:01:32.988Z,4.40
2023-04-28T12:04:01.200Z,6.40
2023-04-28T12:06:28.922Z,2.88
2023-04-28T12:08:57.479Z,5.05
2023-04-28T12:11:25.736Z,3.88
2023-04-28T12:14:10.078Z,3.42
2023-04-28T12:16:39.199Z,3.95
2023-04-28T12:19:09.992Z,7.88
2023-04-28T12:21:38.847Z,5.55
2023-04-28T12:24:22.439Z,3.90
2023-04-28T12:26:49.910Z,4.82
2023-04-28T12:29:37.263Z,2.45
2023-04-28T12:32:05.427Z,1.98
2023-04-28T12:34:33.611Z,3.47
2023-04-28T12:37:05.594Z,7.97
2023-04-28T12:39:35.244Z,5.83
2023-04-28T12:42:04.064Z,5.15
2023-04-28T12:44:38.251Z,4.20
2023-04-28T12:47:07.586Z,3.08
2023-04-28T12:49:36.081Z,5.68
2023-04-28T12:52:04.012Z,3.42
2023-04-28T12:54:31.968Z,4.55
2023-04-28T12:56:59.261Z,4.78
2023-04-28T12:59:26.906Z,6.43
2023-04-28T13:01:55.453Z,4.07
2023-04-28T13:04:23.436Z,3.13
2023-04-28T13:06:51.596Z,3.70
2023-04-28T13:09:19.434Z,3.08
2023-04-28T13:11:47.032Z,4.95
2023-04-28T13:14:14.812Z,5.78
2023-04-28T13:16:42.264Z,4.85
2023-04-28T13:19:13.660Z,3.63
2023-04-28T13:21:42.367Z,4.40
2023-04-28T13:24:10.491Z,5.13
2023-04-28T13:26:38.193Z,8.68
2023-04-28T13:29:06.018Z,6.22
2023-04-28T13:31:33.330Z,5.97
2023-04-28T13:34:02.110Z,4.07
2023-04-28T13:36:29.852Z,5.82
2023-04-28T13:38:57.601Z,2.65
2023-04-28T13:41:25.777Z,7.68
2023-04-28T13:43:53.850Z,2.90
2023-04-28T13:46:21.880Z,8.45
2023-04-28T13:48:50.486Z,5.93
2023-04-28T13:51:17.879Z,2.97
2023-04-28T13:53:45.443Z,3.45
2023-04-28T13:56:12.892Z,4.40
2023-04-28T13:58:40.776Z,4.60
2023-04-28T14:01:08.105Z,4.13
2023-04-28T14:03:35.994Z,4.28
2023-04-28T14:06:04.125Z,8.20
2023-04-28T14:08:32.544Z,4.85
2023-04-28T14:10:59.972Z,6.65
2023-04-28T14:13:27.641Z,4.07
2023-04-28T14:15:59.141Z,4.80
2023-04-28T14:18:27.822Z,5.88
2023-04-28T14:20:55.695Z,7.63
2023-04-28T14:23:23.645Z,2.97
2023-04-28T14:25:52.378Z,4.78
2023-04-28T14:28:21.701Z,5.88
2023-04-28T14:30:50.028Z,4.68
2023-04-28T14:33:17.722Z,7.18
2023-04-28T14:35:45.065Z,6.30
2023-04-28T14:38:13.793Z,3.35
2023-04-28T14:40:42.839Z,4.50
2023-04-28T14:43:10.892Z,6.72
2023-04-28T14:45:38.339Z,3.38
2023-04-28T14:48:07.833Z,6.07
2023-04-28T14:50:35.350Z,4.25
2023-04-28T14:53:07.553Z,4.22
2023-04-28T14:55:35.082Z,5.13
2023-04-28T14:58:03.044Z,5.25
2023-04-28T15:00:31.407Z,3.15
2023-04-28T15:02:59.127Z,5.57
2023-04-28T15:05:27.155Z,7.50
2023-04-28T15:07:54.774Z,5.07
2023-04-28T15:10:22.135Z,6.03
2023-04-28T15:12:49.786Z,6.40
2023-04-28T15:15:17.234Z,6.18
2023-04-28T15:17:45.404Z,3.33
2023-04-28T15:20:12.919Z,3.33
2023-04-28T15:22:44.414Z,12.70
2023-04-28T15:25:11.738Z,4.82
2023-04-28T15:27:39.969Z,5.22
2023-04-28T15:30:08.471Z,6.32
2023-04-28T15:32:36.250Z,7.32
2023-04-28T15:35:04.083Z,6.45
2023-04-28T15:37:43.009Z,4.55
2023-04-28T15:40:14.468Z,6.78
2023-04-28T15:42:43.542Z,3.00
2023-04-28T15:45:11.163Z,6.82
2023-04-28T15:47:40.556Z,4.53
2023-04-28T15:50:09.065Z,7.65
2023-04-28T15:52:40.802Z,9.93
2023-04-28T15:55:09.009Z,4.88
2023-04-28T15:57:37.400Z,5.82
2023-04-28T16:00:06.278Z,8.25
2023-04-28T16:02:34.011Z,4.88
2023-04-28T16:05:02.549Z,6.20
2023-04-28T16:07:33.133Z,4.25
2023-04-28T16:10:00.629Z,4.30
2023-04-28T16:12:28.785Z,5.22
2023-04-28T16:14:56.162Z,9.45
2023-04-28T16:17:23.753Z,4.75
2023-04-28T16:19:51.073Z,3.60
2023-04-28T16:22:19.415Z,5.80
2023-04-28T16:24:46.717Z,7.13
2023-04-28T16:27:14.776Z,6.05
2023-04-28T16:29:42.067Z,8.93
2023-04-28T16:32:10.045Z,5.90
2023-04-28T16:34:37.394Z,16.45
2023-04-28T16:37:07.096Z,10.77
2023-04-28T16:39:34.476Z,8.23
2023-04-28T16:42:03.856Z,9.10
2023-04-28T16:44:31.171Z,10.13
2023-04-28T16:46:59.407Z,9.65
2023-04-28T16:49:26.739Z,26.63
2023-04-28T16:51:58.091Z,18.92
2023-04-28T16:54:27.894Z,32.88
2023-04-28T16:56:55.967Z,12.40
2023-04-28T16:59:24.928Z,6.72
2023-04-28T17:01:52.865Z,23.02
2023-04-28T17:04:20.510Z,35.60
2023-04-28T17:06:48.652Z,16.15
2023-04-28T17:09:16.103Z,11.52
2023-04-28T17:11:43.708Z,6.78
2023-04-28T17:14:11.125Z,15.85
2023-04-28T17:16:39.389Z,13.82
2023-04-28T17:19:07.940Z,12.07
2023-04-28T17:21:35.871Z,7.00
2023-04-28T17:24:03.160Z,9.77
2023-04-28T17:26:31.269Z,9.65
2023-04-28T17:28:59.794Z,9.73
2023-04-28T17:31:27.608Z,12.80
2023-04-28T17:33:56.020Z,8.90
2023-04-28T17:36:25.845Z,7.88
2023-04-28T17:38:53.591Z,13.20
2023-04-28T17:41:21.677Z,38.45
2023-04-28T17:43:49.222Z,13.05
2023-04-28T17:46:17.004Z,41.90
2023-04-28T17:48:44.309Z,9.55
2023-04-28T17:51:11.933Z,28.98
2023-04-28T17:53:39.454Z,40.63
2023-04-28T17:56:08.165Z,26.48
2023-04-28T17:58:36.434Z,74.43
2023-04-28T18:01:05.037Z,69.20
2023-04-28T18:03:32.668Z,42.22
2023-04-28T18:06:00.374Z,28.60
2023-04-28T18:08:27.775Z,37.42
2023-04-28T18:10:56.354Z,35.22
2023-04-28T18:13:23.687Z,33.00
2023-04-28T18:15:51.713Z,30.33
2023-04-28T18:18:19.616Z,37.33
2023-04-28T18:20:47.930Z,33.03
2023-04-28T18:23:15.296Z,39.92
2023-04-28T18:25:43.916Z,26.08
2023-04-28T18:28:11.594Z,26.58
2023-04-28T18:30:39.105Z,26.05
2023-04-28T18:33:07.744Z,35.50
2023-04-28T18:35:36.773Z,36.38
2023-04-28T18:38:05.060Z,35.05
2023-04-28T18:40:39.651Z,22.92
2023-04-28T18:43:07.426Z,22.77
2023-04-28T18:45:35.825Z,17.65
2023-04-28T18:48:03.785Z,25.48
2023-04-28T18:50:32.716Z,28.35
2023-04-28T18:53:04.260Z,35.67
2023-04-28T18:55:34.800Z,37.17
2023-04-28T18:58:02.493Z,43.85
2023-04-28T19:00:30.405Z,55.53
2023-04-28T19:02:57.900Z,58.97
2023-04-28T19:05:26.239Z,53.67
2023-04-28T19:07:53.690Z,44.47
2023-04-28T19:10:21.286Z,42.92
2023-04-28T19:12:48.647Z,33.83
2023-04-28T19:15:17.038Z,44.30
2023-04-28T19:17:44.522Z,43.22
2023-04-28T19:20:13.366Z,39.75
2023-04-28T19:22:44.414Z,39.03
2023-04-28T19:25:12.279Z,34.67
2023-04-28T19:27:40.712Z,31.63
2023-04-28T19:30:09.712Z,38.35
2023-04-28T19:32:37.264Z,35.13
2023-04-28T19:35:05.107Z,42.30
2023-04-28T19:37:33.978Z,37.40
2023-04-28T19:40:02.077Z,46.38
2023-04-28T19:42:30.073Z,63.00
2023-04-28T19:44:58.958Z,64.18
2023-04-28T19:47:27.599Z,66.10
2023-04-28T19:49:55.463Z,46.55
2023-04-28T19:52:23.045Z,51.72
2023-04-28T19:54:51.276Z,61.10
2023-04-28T19:57:19.116Z,45.85
2023-04-28T19:59:47.723Z,53.40
2023-04-28T20:02:15.543Z,63.22
2023-04-28T20:04:43.441Z,77.00
2023-04-28T20:07:11.426Z,74.40
2023-04-28T20:09:39.113Z,69.75
2023-04-28T20:12:08.839Z,56.97
2023-04-28T20:14:37.555Z,54.85
2023-04-28T20:17:05.554Z,58.13
2023-04-28T20:19:34.857Z,44.17
2023-04-28T20:22:08.335Z,134.20
2023-04-28T20:24:37.364Z,131.50
2023-04-28T20:27:04.796Z,140.82
2023-04-28T20:29:34.858Z,105.13
2023-04-28T20:32:02.579Z,112.45
2023-04-28T20:34:30.617Z,83.97
2023-04-28T20:36:59.460Z,67.43
2023-04-28T20:39:27.021Z,61.10
2023-04-28T20:41:54.363Z,50.58
2023-04-28T20:44:22.194Z,46.85
2023-04-28T20:46:49.502Z,50.53
2023-04-28T20:49:17.444Z,69.82
2023-04-28T20:51:48.020Z,57.90
2023-04-28T20:54:15.693Z,55.85
2023-04-28T20:56:43.107Z,40.75
2023-04-28T20:59:11.111Z,40.78
2023-04-28T21:01:38.398Z,36.92
2023-04-28T21:04:06.206Z,28.25
2023-04-28T21:06:33.636Z,46.40
2023-04-28T21:09:01.473Z,38.53
2023-04-28T21:11:28.785Z,39.20
2023-04-28T21:13:57.329Z,35.55
2023-04-28T21:16:24.668Z,43.38
2023-04-28T21:18:52.514Z,36.55
2023-04-28T21:21:19.763Z,34.65
2023-04-28T21:23:48.497Z,43.60
2023-04-28T21:26:15.759Z,32.70
2023-04-28T21:28:43.715Z,44.25
2023-04-28T21:31:11.068Z,44.58
2023-04-28T21:33:38.623Z,53.47
2023-04-28T21:36:09.725Z,41.22
2023-04-28T21:38:39.016Z,45.80
2023-04-28T21:41:07.551Z,56.05
2023-04-28T21:43:35.274Z,47.42
2023-04-28T21:46:02.650Z,45.85
2023-04-28T21:48:30.452Z,41.30
2023-04-28T21:50:58.077Z,35.08
2023-04-28T21:53:25.683Z,48.65
2023-04-28T21:58:20.570Z,60.80
2023-04-28T22:00:48.152Z,48.33
2023-04-28T22:03:16.319Z,90.60
2023-04-28T22:05:46.789Z,54.15
2023-04-28T22:08:15.435Z,53.88
2023-04-28T22:10:45.421Z,58.10
2023-04-28T22:13:13.396Z,58.35
2023-04-28T22:15:41.672Z,55.10
2023-04-28T22:18:09.355Z,43.85
2023-04-28T22:20:36.717Z,45.90
2023-04-28T22:23:04.633Z,41.42
2023-04-28T22:25:32.238Z,46.35
2023-04-28T22:28:00.208Z,39.55
2023-04-28T22:30:27.904Z,39.88
2023-04-28T22:32:55.924Z,60.95
2023-04-28T22:35:23.683Z,35.30
2023-04-28T22:37:51.311Z,37.55
2023-04-28T22:40:18.609Z,44.70
2023-04-28T22:42:46.471Z,35.88
2023-04-28T22:45:13.812Z,55.47
2023-04-28T22:47:42.006Z,69.55
2023-04-28T22:50:10.461Z,51.20
2023-04-28T22:52:38.148Z,53.92
2023-04-28T22:55:06.399Z,43.78
2023-04-28T22:57:34.121Z,52.90
2023-04-28T23:00:02.149Z,46.78
2023-04-28T23:02:29.947Z,40.60
2023-04-28T23:04:57.368Z,35.60
2023-04-28T23:07:25.453Z,31.35
2023-04-28T23:09:53.004Z,21.40
2023-04-28T23:12:21.780Z,31.35
2023-04-28T23:14:49.072Z,25.23
2023-04-28T23:17:16.968Z,22.60
2023-04-28T23:19:44.288Z,24.98
2023-04-28T23:22:11.836Z,29.55
2023-04-28T23:24:40.002Z,28.98
2023-04-28T23:27:07.795Z,35.75
2023-04-28T23:29:38.128Z,29.58
2023-04-28T23:32:05.970Z,28.48
2023-04-28T23:34:33.382Z,21.33
2023-04-28T23:37:01.385Z,21.17
2023-04-28T23:39:30.115Z,24.27
2023-04-28T23:41:59.014Z,20.58
2023-04-28T23:44:26.308Z,22.90
2023-04-28T23:46:55.989Z,21.65
2023-04-28T23:49:23.794Z,21.27
2023-04-28T23:51:51.431Z,24.05
2023-04-28T23:54:18.685Z,24.42
2023-04-28T23:56:46.399Z,20.65
2023-04-28T23:59:13.848Z,21.92
